sensor_id;sensor_type;location;lat;lon;timestamp;P1;durP1;ratioP1;P2;durP2;ratioP2
10977;SDS011;5542;48.272;10.794;2023-08-12T00:01:58;1.85;;;1.60;;
10977;SDS011;5542;48.272;10.794;2023-08-12T00:04:25;2.25;;;2.10;;
10977;SDS011;5542;48.272;10.794;2023-08-12T00:06:52;2.22;;;2.10;;
10977;SDS011;5542;48.272;10.794;2023-08-12T00:09:18;2.58;;;2.38;;
10977;SDS011;5542;48.272;10.794;2023-08-12T00:11:45;1.85;;;1.75;;
10977;SDS011;5542;48.272;10.794;2023-08-12T00:14:11;1.70;;;1.60;;
10977;SDS011;5542;48.272;10.794;2023-08-12T00:16:40;2.30;;;2.13;;
10977;SDS011;5542;48.272;10.794;2023-08-12T00:19:06;2.10;;;2.00;;
10977;SDS011;5542;48.272;10.794;2023-08-12T00:21:33;2.30;;;2.20;;
10977;SDS011;5542;48.272;10.794;2023-08-12T00:24:00;2.45;;;2.25;;
10977;SDS011;5542;48.272;10.794;2023-08-12T00:26:26;2.20;;;2.10;;
10977;SDS011;5542;48.272;10.794;2023-08-12T00:28:53;2.10;;;1.90;;
10977;SDS011;5542;48.272;10.794;2023-08-12T00:31:19;2.10;;;2.00;;
10977;SDS011;5542;48.272;10.794;2023-08-12T00:33:47;2.65;;;2.08;;
10977;SDS011;5542;48.272;10.794;2023-08-12T00:36:14;2.20;;;2.10;;
10977;SDS011;5542;48.272;10.794;2023-08-12T00:38:40;2.00;;;1.90;;
10977;SDS011;5542;48.272;10.794;2023-08-12T00:41:07;2.10;;;2.00;;
10977;SDS011;5542;48.272;10.794;2023-08-12T00:43:34;1.50;;;1.50;;
10977;SDS011;5542;48.272;10.794;2023-08-12T00:46:00;2.10;;;2.00;;
10977;SDS011;5542;48.272;10.794;2023-08-12T00:48:27;1.95;;;1.85;;
10977;SDS011;5542;48.272;10.794;2023-08-12T00:50:55;2.33;;;2.13;;
10977;SDS011;5542;48.272;10.794;2023-08-12T00:53:22;2.60;;;2.40;;
10977;SDS011;5542;48.272;10.794;2023-08-12T00:55:49;2.05;;;1.95;;
10977;SDS011;5542;48.272;10.794;2023-08-12T00:58:16;2.03;;;1.92;;
10977;SDS011;5542;48.272;10.794;2023-08-12T01:00:42;1.77;;;1.67;;
10977;SDS011;5542;48.272;10.794;2023-08-12T01:03:09;2.38;;;2.20;;
10977;SDS011;5542;48.272;10.794;2023-08-12T01:05:37;2.07;;;1.97;;
10977;SDS011;5542;48.272;10.794;2023-08-12T01:08:05;2.20;;;2.10;;
10977;SDS011;5542;48.272;10.794;2023-08-12T01:10:33;1.98;;;1.88;;
10977;SDS011;5542;48.272;10.794;2023-08-12T01:13:06;2.30;;;1.85;;
10977;SDS011;5542;48.272;10.794;2023-08-12T01:15:39;1.75;;;1.65;;
10977;SDS011;5542;48.272;10.794;2023-08-12T01:18:09;1.90;;;1.80;;
10977;SDS011;5542;48.272;10.794;2023-08-12T01:20:37;1.90;;;1.80;;
10977;SDS011;5542;48.272;10.794;2023-08-12T01:23:10;1.70;;;1.67;;
10977;SDS011;5542;48.272;10.794;2023-08-12T01:25:38;2.00;;;1.90;;
10977;SDS011;5542;48.272;10.794;2023-08-12T01:28:05;1.70;;;1.60;;
10977;SDS011;5542;48.272;10.794;2023-08-12T01:30:32;1.98;;;1.88;;
10977;SDS011;5542;48.272;10.794;2023-08-12T01:33:01;2.05;;;1.85;;
10977;SDS011;5542;48.272;10.794;2023-08-12T01:35:35;2.20;;;2.10;;
10977;SDS011;5542;48.272;10.794;2023-08-12T01:38:06;2.38;;;2.15;;
10977;SDS011;5542;48.272;10.794;2023-08-12T01:40:37;2.17;;;2.08;;
10977;SDS011;5542;48.272;10.794;2023-08-12T01:43:04;2.80;;;2.60;;
10977;SDS011;5542;48.272;10.794;2023-08-12T01:45:33;2.60;;;2.40;;
10977;SDS011;5542;48.272;10.794;2023-08-12T01:47:59;2.20;;;2.10;;
10977;SDS011;5542;48.272;10.794;2023-08-12T01:50:26;2.30;;;2.20;;
10977;SDS011;5542;48.272;10.794;2023-08-12T01:52:53;2.08;;;1.98;;
10977;SDS011;5542;48.272;10.794;2023-08-12T01:55:20;1.77;;;1.67;;
10977;SDS011;5542;48.272;10.794;2023-08-12T01:57:47;2.10;;;2.00;;
10977;SDS011;5542;48.272;10.794;2023-08-12T02:00:14;2.55;;;2.35;;
10977;SDS011;5542;48.272;10.794;2023-08-12T02:02:41;2.40;;;2.10;;
10977;SDS011;5542;48.272;10.794;2023-08-12T02:05:11;2.00;;;1.90;;
10977;SDS011;5542;48.272;10.794;2023-08-12T02:07:37;2.15;;;1.83;;
10977;SDS011;5542;48.272;10.794;2023-08-12T02:10:04;1.80;;;1.70;;
10977;SDS011;5542;48.272;10.794;2023-08-12T02:12:33;2.03;;;1.92;;
10977;SDS011;5542;48.272;10.794;2023-08-12T02:14:59;2.30;;;2.20;;
10977;SDS011;5542;48.272;10.794;2023-08-12T02:17:26;2.00;;;1.90;;
10977;SDS011;5542;48.272;10.794;2023-08-12T02:19:52;2.00;;;1.90;;
10977;SDS011;5542;48.272;10.794;2023-08-12T02:22:19;2.28;;;2.10;;
10977;SDS011;5542;48.272;10.794;2023-08-12T02:24:45;2.10;;;2.00;;
10977;SDS011;5542;48.272;10.794;2023-08-12T02:27:12;1.90;;;1.80;;
10977;SDS011;5542;48.272;10.794;2023-08-12T02:29:40;1.77;;;1.67;;
10977;SDS011;5542;48.272;10.794;2023-08-12T02:32:06;1.75;;;1.65;;
10977;SDS011;5542;48.272;10.794;2023-08-12T02:34:33;2.40;;;2.20;;
10977;SDS011;5542;48.272;10.794;2023-08-12T02:36:59;2.30;;;2.20;;
10977;SDS011;5542;48.272;10.794;2023-08-12T02:39:26;1.90;;;1.80;;
10977;SDS011;5542;48.272;10.794;2023-08-12T02:41:53;2.03;;;1.92;;
10977;SDS011;5542;48.272;10.794;2023-08-12T02:44:19;1.45;;;1.45;;
10977;SDS011;5542;48.272;10.794;2023-08-12T02:46:47;2.13;;;2.03;;
10977;SDS011;5542;48.272;10.794;2023-08-12T02:49:14;2.30;;;2.20;;
10977;SDS011;5542;48.272;10.794;2023-08-12T02:51:40;1.90;;;1.80;;
10977;SDS011;5542;48.272;10.794;2023-08-12T02:54:07;1.93;;;1.83;;
10977;SDS011;5542;48.272;10.794;2023-08-12T02:56:33;1.88;;;1.77;;
10977;SDS011;5542;48.272;10.794;2023-08-12T02:59:00;2.38;;;2.28;;
10977;SDS011;5542;48.272;10.794;2023-08-12T03:01:26;1.92;;;1.83;;
10977;SDS011;5542;48.272;10.794;2023-08-12T03:03:55;2.03;;;1.92;;
10977;SDS011;5542;48.272;10.794;2023-08-12T03:06:21;2.00;;;1.90;;
10977;SDS011;5542;48.272;10.794;2023-08-12T03:08:48;1.65;;;1.60;;
10977;SDS011;5542;48.272;10.794;2023-08-12T03:11:15;2.20;;;2.03;;
10977;SDS011;5542;48.272;10.794;2023-08-12T03:13:43;2.90;;;2.70;;
10977;SDS011;5542;48.272;10.794;2023-08-12T03:16:10;2.13;;;2.00;;
10977;SDS011;5542;48.272;10.794;2023-08-12T03:18:39;2.30;;;2.20;;
10977;SDS011;5542;48.272;10.794;2023-08-12T03:21:07;2.47;;;2.30;;
10977;SDS011;5542;48.272;10.794;2023-08-12T03:23:34;2.60;;;2.40;;
10977;SDS011;5542;48.272;10.794;2023-08-12T03:26:01;2.60;;;2.40;;
10977;SDS011;5542;48.272;10.794;2023-08-12T03:28:28;2.25;;;2.15;;
10977;SDS011;5542;48.272;10.794;2023-08-12T03:30:54;2.60;;;2.40;;
10977;SDS011;5542;48.272;10.794;2023-08-12T03:33:21;2.40;;;2.30;;
10977;SDS011;5542;48.272;10.794;2023-08-12T03:35:48;2.08;;;1.98;;
10977;SDS011;5542;48.272;10.794;2023-08-12T03:38:16;2.20;;;2.10;;
10977;SDS011;5542;48.272;10.794;2023-08-12T03:40:43;1.75;;;1.70;;
10977;SDS011;5542;48.272;10.794;2023-08-12T03:43:10;1.98;;;1.88;;
10977;SDS011;5542;48.272;10.794;2023-08-12T03:45:39;2.15;;;2.05;;
10977;SDS011;5542;48.272;10.794;2023-08-12T03:48:06;2.53;;;2.42;;
10977;SDS011;5542;48.272;10.794;2023-08-12T03:50:33;2.80;;;2.60;;
10977;SDS011;5542;48.272;10.794;2023-08-12T03:53:00;2.33;;;2.20;;
10977;SDS011;5542;48.272;10.794;2023-08-12T03:55:29;2.10;;;2.00;;
10977;SDS011;5542;48.272;10.794;2023-08-12T03:57:56;2.25;;;2.15;;
10977;SDS011;5542;48.272;10.794;2023-08-12T04:00:23;2.23;;;2.13;;
10977;SDS011;5542;48.272;10.794;2023-08-12T04:02:50;1.80;;;1.70;;
10977;SDS011;5542;48.272;10.794;2023-08-12T04:05:17;1.65;;;1.55;;
10977;SDS011;5542;48.272;10.794;2023-08-12T04:07:43;1.80;;;1.70;;
10977;SDS011;5542;48.272;10.794;2023-08-12T04:10:10;1.90;;;1.80;;
10977;SDS011;5542;48.272;10.794;2023-08-12T04:12:39;2.80;;;2.60;;
10977;SDS011;5542;48.272;10.794;2023-08-12T04:15:07;2.70;;;2.50;;
10977;SDS011;5542;48.272;10.794;2023-08-12T04:17:34;2.13;;;2.03;;
10977;SDS011;5542;48.272;10.794;2023-08-12T04:20:00;1.95;;;1.85;;
10977;SDS011;5542;48.272;10.794;2023-08-12T04:22:30;1.80;;;1.70;;
10977;SDS011;5542;48.272;10.794;2023-08-12T04:24:57;2.00;;;1.90;;
10977;SDS011;5542;48.272;10.794;2023-08-12T04:27:24;2.77;;;2.57;;
10977;SDS011;5542;48.272;10.794;2023-08-12T04:29:51;2.13;;;2.03;;
10977;SDS011;5542;48.272;10.794;2023-08-12T04:32:18;2.15;;;2.05;;
10977;SDS011;5542;48.272;10.794;2023-08-12T04:34:45;2.33;;;2.22;;
10977;SDS011;5542;48.272;10.794;2023-08-12T04:37:12;2.20;;;2.10;;
10977;SDS011;5542;48.272;10.794;2023-08-12T04:39:38;2.20;;;2.10;;
10977;SDS011;5542;48.272;10.794;2023-08-12T04:42:05;2.15;;;2.05;;
10977;SDS011;5542;48.272;10.794;2023-08-12T04:44:32;2.10;;;2.00;;
10977;SDS011;5542;48.272;10.794;2023-08-12T04:46:59;2.10;;;2.00;;
10977;SDS011;5542;48.272;10.794;2023-08-12T04:49:26;2.33;;;2.22;;
10977;SDS011;5542;48.272;10.794;2023-08-12T04:51:53;2.45;;;2.30;;
10977;SDS011;5542;48.272;10.794;2023-08-12T04:54:19;2.75;;;2.55;;
10977;SDS011;5542;48.272;10.794;2023-08-12T04:56:46;2.90;;;2.70;;
10977;SDS011;5542;48.272;10.794;2023-08-12T04:59:12;2.60;;;2.50;;
10977;SDS011;5542;48.272;10.794;2023-08-12T05:01:39;2.67;;;2.53;;
10977;SDS011;5542;48.272;10.794;2023-08-12T05:04:07;2.40;;;2.30;;
10977;SDS011;5542;48.272;10.794;2023-08-12T05:06:33;3.33;;;3.08;;
10977;SDS011;5542;48.272;10.794;2023-08-12T05:09:00;2.92;;;2.72;;
10977;SDS011;5542;48.272;10.794;2023-08-12T05:11:26;3.90;;;3.60;;
10977;SDS011;5542;48.272;10.794;2023-08-12T05:13:53;4.93;;;4.53;;
10977;SDS011;5542;48.272;10.794;2023-08-12T05:16:19;3.90;;;3.38;;
10977;SDS011;5542;48.272;10.794;2023-08-12T05:18:46;4.30;;;4.00;;
10977;SDS011;5542;48.272;10.794;2023-08-12T05:21:14;4.07;;;3.77;;
10977;SDS011;5542;48.272;10.794;2023-08-12T05:23:40;4.03;;;3.72;;
10977;SDS011;5542;48.272;10.794;2023-08-12T05:26:07;3.88;;;3.58;;
10977;SDS011;5542;48.272;10.794;2023-08-12T05:28:33;4.40;;;4.00;;
10977;SDS011;5542;48.272;10.794;2023-08-12T05:31:00;3.53;;;3.22;;
10977;SDS011;5542;48.272;10.794;2023-08-12T05:33:26;3.85;;;3.28;;
10977;SDS011;5542;48.272;10.794;2023-08-12T05:35:53;3.20;;;3.00;;
10977;SDS011;5542;48.272;10.794;2023-08-12T05:38:21;3.80;;;3.50;;
10977;SDS011;5542;48.272;10.794;2023-08-12T05:40:47;4.90;;;4.50;;
10977;SDS011;5542;48.272;10.794;2023-08-12T05:43:14;4.85;;;4.45;;
10977;SDS011;5542;48.272;10.794;2023-08-12T05:45:40;4.50;;;4.00;;
10977;SDS011;5542;48.272;10.794;2023-08-12T05:48:07;4.38;;;4.07;;
10977;SDS011;5542;48.272;10.794;2023-08-12T05:50:34;7.05;;;5.07;;
10977;SDS011;5542;48.272;10.794;2023-08-12T05:53:00;5.03;;;4.53;;
10977;SDS011;5542;48.272;10.794;2023-08-12T05:55:28;4.50;;;4.10;;
10977;SDS011;5542;48.272;10.794;2023-08-12T05:57:54;5.85;;;4.53;;
10977;SDS011;5542;48.272;10.794;2023-08-12T06:00:21;4.60;;;4.20;;
10977;SDS011;5542;48.272;10.794;2023-08-12T06:02:47;4.95;;;4.55;;
10977;SDS011;5542;48.272;10.794;2023-08-12T06:05:14;4.43;;;4.10;;
10977;SDS011;5542;48.272;10.794;2023-08-12T06:07:41;4.50;;;4.10;;
10977;SDS011;5542;48.272;10.794;2023-08-12T06:10:07;4.65;;;4.20;;
10977;SDS011;5542;48.272;10.794;2023-08-12T06:12:36;4.30;;;3.90;;
10977;SDS011;5542;48.272;10.794;2023-08-12T06:15:03;4.63;;;4.30;;
10977;SDS011;5542;48.272;10.794;2023-08-12T06:17:30;5.10;;;4.60;;
10977;SDS011;5542;48.272;10.794;2023-08-12T06:19:56;4.43;;;4.03;;
10977;SDS011;5542;48.272;10.794;2023-08-12T06:22:23;4.95;;;4.40;;
10977;SDS011;5542;48.272;10.794;2023-08-12T06:24:49;4.30;;;3.90;;
10977;SDS011;5542;48.272;10.794;2023-08-12T06:27:16;4.68;;;4.28;;
10977;SDS011;5542;48.272;10.794;2023-08-12T06:29:46;4.13;;;3.83;;
10977;SDS011;5542;48.272;10.794;2023-08-12T06:32:12;4.20;;;3.90;;
10977;SDS011;5542;48.272;10.794;2023-08-12T06:34:39;4.60;;;4.20;;
10977;SDS011;5542;48.272;10.794;2023-08-12T06:37:06;4.75;;;4.10;;
10977;SDS011;5542;48.272;10.794;2023-08-12T06:39:32;4.47;;;4.07;;
10977;SDS011;5542;48.272;10.794;2023-08-12T06:41:59;4.70;;;4.30;;
10977;SDS011;5542;48.272;10.794;2023-08-12T06:44:25;3.67;;;3.38;;
10977;SDS011;5542;48.272;10.794;2023-08-12T06:46:53;4.60;;;3.80;;
10977;SDS011;5542;48.272;10.794;2023-08-12T06:49:20;3.90;;;3.50;;
10977;SDS011;5542;48.272;10.794;2023-08-12T06:51:46;3.45;;;3.15;;
10977;SDS011;5542;48.272;10.794;2023-08-12T06:54:13;3.75;;;3.45;;
10977;SDS011;5542;48.272;10.794;2023-08-12T06:56:39;4.00;;;3.70;;
10977;SDS011;5542;48.272;10.794;2023-08-12T06:59:06;3.40;;;3.10;;
10977;SDS011;5542;48.272;10.794;2023-08-12T07:01:32;3.58;;;3.38;;
10977;SDS011;5542;48.272;10.794;2023-08-12T07:04:00;3.92;;;3.15;;
10977;SDS011;5542;48.272;10.794;2023-08-12T07:06:27;3.80;;;3.50;;
10977;SDS011;5542;48.272;10.794;2023-08-12T07:08:53;3.78;;;3.47;;
10977;SDS011;5542;48.272;10.794;2023-08-12T07:11:21;3.83;;;3.53;;
10977;SDS011;5542;48.272;10.794;2023-08-12T07:13:47;3.60;;;3.30;;
10977;SDS011;5542;48.272;10.794;2023-08-12T07:16:14;3.55;;;3.25;;
10977;SDS011;5542;48.272;10.794;2023-08-12T07:18:40;3.60;;;3.30;;
10977;SDS011;5542;48.272;10.794;2023-08-12T07:21:08;3.20;;;3.00;;
10977;SDS011;5542;48.272;10.794;2023-08-12T07:23:35;3.67;;;3.20;;
10977;SDS011;5542;48.272;10.794;2023-08-12T07:26:01;3.33;;;3.13;;
10977;SDS011;5542;48.272;10.794;2023-08-12T07:28:28;3.60;;;3.30;;
10977;SDS011;5542;48.272;10.794;2023-08-12T07:30:54;2.97;;;2.78;;
10977;SDS011;5542;48.272;10.794;2023-08-12T07:33:21;3.90;;;3.60;;
10977;SDS011;5542;48.272;10.794;2023-08-12T07:35:47;3.50;;;3.20;;
10977;SDS011;5542;48.272;10.794;2023-08-12T07:38:15;2.95;;;2.75;;
10977;SDS011;5542;48.272;10.794;2023-08-12T07:40:42;3.38;;;3.08;;
10977;SDS011;5542;48.272;10.794;2023-08-12T07:43:08;3.03;;;2.83;;
10977;SDS011;5542;48.272;10.794;2023-08-12T07:45:35;3.63;;;3.35;;
10977;SDS011;5542;48.272;10.794;2023-08-12T07:48:01;3.30;;;3.10;;
10977;SDS011;5542;48.272;10.794;2023-08-12T07:50:29;3.05;;;2.85;;
10977;SDS011;5542;48.272;10.794;2023-08-12T07:52:55;3.47;;;3.25;;
10977;SDS011;5542;48.272;10.794;2023-08-12T07:55:23;3.50;;;3.30;;
10977;SDS011;5542;48.272;10.794;2023-08-12T07:57:50;3.50;;;3.30;;
10977;SDS011;5542;48.272;10.794;2023-08-12T08:00:16;4.40;;;3.50;;
10977;SDS011;5542;48.272;10.794;2023-08-12T08:02:43;3.38;;;3.08;;
10977;SDS011;5542;48.272;10.794;2023-08-12T08:05:10;3.45;;;3.20;;
10977;SDS011;5542;48.272;10.794;2023-08-12T08:07:36;3.15;;;2.95;;
10977;SDS011;5542;48.272;10.794;2023-08-12T08:10:03;3.38;;;3.17;;
10977;SDS011;5542;48.272;10.794;2023-08-12T08:12:32;3.65;;;3.35;;
10977;SDS011;5542;48.272;10.794;2023-08-12T08:14:58;3.23;;;2.90;;
10977;SDS011;5542;48.272;10.794;2023-08-12T08:17:25;3.33;;;3.13;;
10977;SDS011;5542;48.272;10.794;2023-08-12T08:19:51;2.97;;;2.78;;
10977;SDS011;5542;48.272;10.794;2023-08-12T08:22:18;3.70;;;3.40;;
10977;SDS011;5542;48.272;10.794;2023-08-12T08:24:44;3.22;;;3.03;;
10977;SDS011;5542;48.272;10.794;2023-08-12T08:27:11;3.10;;;2.90;;
10977;SDS011;5542;48.272;10.794;2023-08-12T08:29:39;3.67;;;2.90;;
10977;SDS011;5542;48.272;10.794;2023-08-12T08:32:06;3.13;;;2.92;;
10977;SDS011;5542;48.272;10.794;2023-08-12T08:34:33;3.10;;;2.90;;
10977;SDS011;5542;48.272;10.794;2023-08-12T08:36:59;3.20;;;3.00;;
10977;SDS011;5542;48.272;10.794;2023-08-12T08:39:26;3.13;;;2.80;;
10977;SDS011;5542;48.272;10.794;2023-08-12T08:41:52;3.25;;;3.00;;
10977;SDS011;5542;48.272;10.794;2023-08-12T08:44:21;3.20;;;3.00;;
10977;SDS011;5542;48.272;10.794;2023-08-12T08:46:51;2.95;;;2.75;;
10977;SDS011;5542;48.272;10.794;2023-08-12T08:49:18;2.40;;;2.30;;
10977;SDS011;5542;48.272;10.794;2023-08-12T08:51:46;3.25;;;2.85;;
10977;SDS011;5542;48.272;10.794;2023-08-12T08:54:13;2.80;;;2.60;;
10977;SDS011;5542;48.272;10.794;2023-08-12T08:56:41;3.00;;;2.80;;
10977;SDS011;5542;48.272;10.794;2023-08-12T08:59:08;3.42;;;3.22;;
10977;SDS011;5542;48.272;10.794;2023-08-12T09:01:35;3.40;;;3.10;;
10977;SDS011;5542;48.272;10.794;2023-08-12T09:04:05;3.00;;;2.80;;
10977;SDS011;5542;48.272;10.794;2023-08-12T09:06:33;2.72;;;2.53;;
10977;SDS011;5542;48.272;10.794;2023-08-12T09:09:03;3.72;;;2.97;;
10977;SDS011;5542;48.272;10.794;2023-08-12T09:11:32;3.47;;;3.20;;
10977;SDS011;5542;48.272;10.794;2023-08-12T09:13:59;3.80;;;3.22;;
10977;SDS011;5542;48.272;10.794;2023-08-12T09:16:26;2.78;;;2.60;;
10977;SDS011;5542;48.272;10.794;2023-08-12T09:18:54;3.15;;;2.85;;
10977;SDS011;5542;48.272;10.794;2023-08-12T09:21:22;3.38;;;3.17;;
10977;SDS011;5542;48.272;10.794;2023-08-12T09:23:49;3.08;;;2.88;;
10977;SDS011;5542;48.272;10.794;2023-08-12T09:26:18;2.97;;;2.78;;
10977;SDS011;5542;48.272;10.794;2023-08-12T09:28:45;3.25;;;3.05;;
10977;SDS011;5542;48.272;10.794;2023-08-12T09:31:21;3.10;;;2.90;;
10977;SDS011;5542;48.272;10.794;2023-08-12T09:33:50;2.72;;;2.53;;
10977;SDS011;5542;48.272;10.794;2023-08-12T09:36:17;2.75;;;2.55;;
10977;SDS011;5542;48.272;10.794;2023-08-12T09:38:45;3.47;;;3.17;;
10977;SDS011;5542;48.272;10.794;2023-08-12T09:41:12;5.03;;;4.53;;
10977;SDS011;5542;48.272;10.794;2023-08-12T09:43:40;4.80;;;4.00;;
10977;SDS011;5542;48.272;10.794;2023-08-12T09:46:10;5.05;;;3.70;;
10977;SDS011;5542;48.272;10.794;2023-08-12T09:48:37;3.13;;;2.93;;
10977;SDS011;5542;48.272;10.794;2023-08-12T09:51:04;3.40;;;3.20;;
10977;SDS011;5542;48.272;10.794;2023-08-12T09:53:31;3.28;;;3.05;;
10977;SDS011;5542;48.272;10.794;2023-08-12T09:56:00;3.08;;;2.78;;
10977;SDS011;5542;48.272;10.794;2023-08-12T09:58:32;4.35;;;3.95;;
10977;SDS011;5542;48.272;10.794;2023-08-12T10:01:01;3.08;;;2.88;;
10977;SDS011;5542;48.272;10.794;2023-08-12T10:03:28;2.65;;;2.55;;
10977;SDS011;5542;48.272;10.794;2023-08-12T10:05:55;3.00;;;2.63;;
10977;SDS011;5542;48.272;10.794;2023-08-12T10:08:23;3.33;;;2.78;;
10977;SDS011;5542;48.272;10.794;2023-08-12T10:10:50;2.60;;;2.45;;
10977;SDS011;5542;48.272;10.794;2023-08-12T10:13:19;3.20;;;2.90;;
10977;SDS011;5542;48.272;10.794;2023-08-12T10:15:46;2.50;;;2.40;;
10977;SDS011;5542;48.272;10.794;2023-08-12T10:18:13;2.58;;;2.38;;
10977;SDS011;5542;48.272;10.794;2023-08-12T10:20:42;2.60;;;2.40;;
10977;SDS011;5542;48.272;10.794;2023-08-12T10:23:12;2.50;;;2.40;;
10977;SDS011;5542;48.272;10.794;2023-08-12T10:25:41;2.97;;;2.78;;
10977;SDS011;5542;48.272;10.794;2023-08-12T10:28:09;2.65;;;2.45;;
10977;SDS011;5542;48.272;10.794;2023-08-12T10:30:37;2.50;;;2.40;;
10977;SDS011;5542;48.272;10.794;2023-08-12T10:33:06;3.25;;;2.58;;
10977;SDS011;5542;48.272;10.794;2023-08-12T10:35:40;2.80;;;2.60;;
10977;SDS011;5542;48.272;10.794;2023-08-12T10:38:08;2.75;;;2.55;;
10977;SDS011;5542;48.272;10.794;2023-08-12T10:40:34;2.50;;;2.30;;
10977;SDS011;5542;48.272;10.794;2023-08-12T10:43:01;3.20;;;3.00;;
10977;SDS011;5542;48.272;10.794;2023-08-12T10:45:41;2.60;;;2.50;;
10977;SDS011;5542;48.272;10.794;2023-08-12T10:48:11;2.90;;;2.70;;
10977;SDS011;5542;48.272;10.794;2023-08-12T10:50:43;2.65;;;2.55;;
10977;SDS011;5542;48.272;10.794;2023-08-12T10:53:20;2.72;;;2.60;;
10977;SDS011;5542;48.272;10.794;2023-08-12T10:55:49;2.85;;;2.65;;
10977;SDS011;5542;48.272;10.794;2023-08-12T10:58:23;2.28;;;2.08;;
10977;SDS011;5542;48.272;10.794;2023-08-12T11:00:54;2.90;;;2.70;;
10977;SDS011;5542;48.272;10.794;2023-08-12T11:03:21;2.80;;;2.60;;
10977;SDS011;5542;48.272;10.794;2023-08-12T11:05:47;3.17;;;2.97;;
10977;SDS011;5542;48.272;10.794;2023-08-12T11:08:15;2.95;;;2.75;;
10977;SDS011;5542;48.272;10.794;2023-08-12T11:10:43;2.60;;;2.50;;
10977;SDS011;5542;48.272;10.794;2023-08-12T11:13:10;2.72;;;2.53;;
10977;SDS011;5542;48.272;10.794;2023-08-12T11:15:37;2.63;;;2.43;;
10977;SDS011;5542;48.272;10.794;2023-08-12T11:18:09;2.67;;;2.47;;
10977;SDS011;5542;48.272;10.794;2023-08-12T11:20:36;3.53;;;2.43;;
10977;SDS011;5542;48.272;10.794;2023-08-12T11:23:04;2.80;;;2.60;;
10977;SDS011;5542;48.272;10.794;2023-08-12T11:25:32;2.92;;;2.65;;
10977;SDS011;5542;48.272;10.794;2023-08-12T11:28:00;3.40;;;3.10;;
10977;SDS011;5542;48.272;10.794;2023-08-12T11:30:27;3.25;;;2.90;;
10977;SDS011;5542;48.272;10.794;2023-08-12T11:32:54;2.70;;;2.60;;
10977;SDS011;5542;48.272;10.794;2023-08-12T11:35:23;2.40;;;2.30;;
10977;SDS011;5542;48.272;10.794;2023-08-12T11:37:51;3.03;;;2.83;;
10977;SDS011;5542;48.272;10.794;2023-08-12T11:40:20;2.78;;;2.65;;
10977;SDS011;5542;48.272;10.794;2023-08-12T11:42:48;2.50;;;2.30;;
10977;SDS011;5542;48.272;10.794;2023-08-12T11:45:17;2.80;;;2.60;;
10977;SDS011;5542;48.272;10.794;2023-08-12T11:47:45;3.25;;;2.95;;
10977;SDS011;5542;48.272;10.794;2023-08-12T11:50:17;3.67;;;3.38;;
10977;SDS011;5542;48.272;10.794;2023-08-12T11:52:46;3.42;;;3.22;;
10977;SDS011;5542;48.272;10.794;2023-08-12T11:55:13;3.00;;;2.80;;
10977;SDS011;5542;48.272;10.794;2023-08-12T11:57:41;3.03;;;2.83;;
10977;SDS011;5542;48.272;10.794;2023-08-12T12:00:10;3.42;;;3.22;;
10977;SDS011;5542;48.272;10.794;2023-08-12T12:02:40;4.15;;;3.40;;
10977;SDS011;5542;48.272;10.794;2023-08-12T12:05:08;3.15;;;2.95;;
10977;SDS011;5542;48.272;10.794;2023-08-12T12:07:36;3.40;;;3.10;;
10977;SDS011;5542;48.272;10.794;2023-08-12T12:10:04;3.47;;;3.22;;
10977;SDS011;5542;48.272;10.794;2023-08-12T12:12:32;3.58;;;3.30;;
10977;SDS011;5542;48.272;10.794;2023-08-12T12:15:00;3.15;;;2.90;;
10977;SDS011;5542;48.272;10.794;2023-08-12T12:17:26;3.20;;;3.00;;
10977;SDS011;5542;48.272;10.794;2023-08-12T12:19:54;3.27;;;3.07;;
10977;SDS011;5542;48.272;10.794;2023-08-12T12:22:25;3.70;;;3.30;;
10977;SDS011;5542;48.272;10.794;2023-08-12T12:24:52;2.78;;;2.65;;
10977;SDS011;5542;48.272;10.794;2023-08-12T12:27:20;2.70;;;2.50;;
10977;SDS011;5542;48.272;10.794;2023-08-12T12:29:47;3.25;;;2.78;;
10977;SDS011;5542;48.272;10.794;2023-08-12T12:32:13;2.47;;;2.38;;
10977;SDS011;5542;48.272;10.794;2023-08-12T12:34:40;2.17;;;2.08;;
10977;SDS011;5542;48.272;10.794;2023-08-12T12:37:06;2.10;;;1.90;;
10977;SDS011;5542;48.272;10.794;2023-08-12T12:39:33;2.60;;;2.40;;
10977;SDS011;5542;48.272;10.794;2023-08-12T12:42:00;2.30;;;2.20;;
10977;SDS011;5542;48.272;10.794;2023-08-12T12:44:28;3.50;;;2.35;;
10977;SDS011;5542;48.272;10.794;2023-08-12T12:46:54;2.28;;;2.17;;
10977;SDS011;5542;48.272;10.794;2023-08-12T12:49:21;2.83;;;2.63;;
10977;SDS011;5542;48.272;10.794;2023-08-12T12:51:47;3.22;;;2.92;;
10977;SDS011;5542;48.272;10.794;2023-08-12T12:54:14;2.90;;;2.70;;
10977;SDS011;5542;48.272;10.794;2023-08-12T12:56:41;2.72;;;2.53;;
10977;SDS011;5542;48.272;10.794;2023-08-12T12:59:07;2.42;;;2.33;;
10977;SDS011;5542;48.272;10.794;2023-08-12T13:01:35;2.90;;;2.65;;
10977;SDS011;5542;48.272;10.794;2023-08-12T13:04:02;2.90;;;2.70;;
10977;SDS011;5542;48.272;10.794;2023-08-12T13:06:29;2.58;;;2.40;;
10977;SDS011;5542;48.272;10.794;2023-08-12T13:08:56;3.10;;;2.90;;
10977;SDS011;5542;48.272;10.794;2023-08-12T13:11:22;3.10;;;2.90;;
10977;SDS011;5542;48.272;10.794;2023-08-12T13:13:49;3.00;;;2.80;;
10977;SDS011;5542;48.272;10.794;2023-08-12T13:16:15;3.75;;;3.45;;
10977;SDS011;5542;48.272;10.794;2023-08-12T13:18:43;2.75;;;2.55;;
10977;SDS011;5542;48.272;10.794;2023-08-12T13:21:10;3.22;;;3.03;;
10977;SDS011;5542;48.272;10.794;2023-08-12T13:23:36;3.50;;;3.30;;
10977;SDS011;5542;48.272;10.794;2023-08-12T13:26:03;3.40;;;2.85;;
10977;SDS011;5542;48.272;10.794;2023-08-12T13:28:30;3.13;;;2.92;;
10977;SDS011;5542;48.272;10.794;2023-08-12T13:30:56;3.00;;;2.80;;
10977;SDS011;5542;48.272;10.794;2023-08-12T13:33:23;3.50;;;3.20;;
10977;SDS011;5542;48.272;10.794;2023-08-12T13:35:51;3.00;;;2.80;;
10977;SDS011;5542;48.272;10.794;2023-08-12T13:38:17;3.45;;;3.17;;
10977;SDS011;5542;48.272;10.794;2023-08-12T13:40:44;3.30;;;3.10;;
10977;SDS011;5542;48.272;10.794;2023-08-12T13:43:10;3.30;;;3.10;;
10977;SDS011;5542;48.272;10.794;2023-08-12T13:45:37;3.40;;;3.10;;
10977;SDS011;5542;48.272;10.794;2023-08-12T13:48:04;3.33;;;3.00;;
10977;SDS011;5542;48.272;10.794;2023-08-12T13:50:31;3.63;;;2.97;;
10977;SDS011;5542;48.272;10.794;2023-08-12T13:52:59;4.57;;;2.85;;
10977;SDS011;5542;48.272;10.794;2023-08-12T13:55:25;3.10;;;2.90;;
10977;SDS011;5542;48.272;10.794;2023-08-12T13:57:52;3.20;;;3.00;;
10977;SDS011;5542;48.272;10.794;2023-08-12T14:00:19;3.20;;;2.90;;
10977;SDS011;5542;48.272;10.794;2023-08-12T14:02:46;3.40;;;3.10;;
10977;SDS011;5542;48.272;10.794;2023-08-12T14:05:13;3.17;;;2.97;;
10977;SDS011;5542;48.272;10.794;2023-08-12T14:07:40;3.08;;;2.88;;
10977;SDS011;5542;48.272;10.794;2023-08-12T14:10:08;3.40;;;3.10;;
10977;SDS011;5542;48.272;10.794;2023-08-12T14:12:35;3.00;;;2.80;;
10977;SDS011;5542;48.272;10.794;2023-08-12T14:15:02;3.30;;;3.10;;
10977;SDS011;5542;48.272;10.794;2023-08-12T14:17:29;3.40;;;3.10;;
10977;SDS011;5542;48.272;10.794;2023-08-12T14:19:55;3.53;;;3.00;;
10977;SDS011;5542;48.272;10.794;2023-08-12T14:22:23;4.55;;;3.15;;
10977;SDS011;5542;48.272;10.794;2023-08-12T14:24:50;3.22;;;2.92;;
10977;SDS011;5542;48.272;10.794;2023-08-12T14:27:18;3.28;;;2.60;;
10977;SDS011;5542;48.272;10.794;2023-08-12T14:29:44;3.38;;;3.17;;
10977;SDS011;5542;48.272;10.794;2023-08-12T14:32:11;3.40;;;3.10;;
10977;SDS011;5542;48.272;10.794;2023-08-12T14:34:38;2.80;;;2.60;;
10977;SDS011;5542;48.272;10.794;2023-08-12T14:37:04;2.70;;;2.50;;
10977;SDS011;5542;48.272;10.794;2023-08-12T14:39:32;2.70;;;2.50;;
10977;SDS011;5542;48.272;10.794;2023-08-12T14:41:59;2.90;;;2.70;;
10977;SDS011;5542;48.272;10.794;2023-08-12T14:44:27;2.90;;;2.60;;
10977;SDS011;5542;48.272;10.794;2023-08-12T14:46:53;2.83;;;2.63;;
10977;SDS011;5542;48.272;10.794;2023-08-12T14:49:20;2.90;;;2.70;;